ESNQ

Kiruna

Airport
ICAO code
ESNQ
Summary
ICAO Region
EUR
ICAO Territory
Location

Kiruna,

Elevation
1508 ft
Coordinates
67° 49' 19" N , 20° 20' 12" E
KCC
Dfc
Metar
Observation
ESNQ 152050Z 19005KT 160V220 9999 BKN010 16/14 Q1014
Station
Kiruna Airport
Date/Time
2022-08-15 20:50:00
Wind direction
190°
Wind speed
05 kts
Lowest cloud amount
broken clouds
Temperature
16°C
Dew point
14°C
Humidity
87%
QNH
1014 hPa
Weather condition
n/a

Description

Kiruna Airport is the northernmost airport in Sweden. The airport lies around 10 km from the town centre of Kiruna.

Climatology

Subarctic climate (Köppen climate classification Dfc) - long, usually very cold winters, and short, cool to mild summers.

Runways

Designator Length Width Surface Rops
3/21 2502 45 ASP Yes/Yes

Airport map

Aerial View

Airport accidents

SKYbrary Partners:

Safety knowledge contributed by: